createdAt,value
2022-09-06T00:03:54.083Z,98269.81
2022-09-06T00:08:55.658Z,98262.41
2022-09-06T00:13:57.005Z,98264.50
2022-09-06T00:18:58.388Z,98272.84
2022-09-06T00:23:59.757Z,98270.63
2022-09-06T00:29:01.111Z,98267.50
2022-09-06T00:34:02.674Z,98264.81
2022-09-06T00:39:04.135Z,98255.50
2022-09-06T00:44:05.656Z,98257.84
2022-09-06T00:49:09.474Z,98253.94
2022-09-06T00:54:11.623Z,98253.56
2022-09-06T00:59:13.258Z,98265.69
2022-09-06T01:04:14.944Z,98264.00
2022-09-06T01:09:34.236Z,98260.72
2022-09-06T01:14:55.661Z,98254.72
2022-09-06T01:20:15.532Z,98256.81
2022-09-06T01:25:18.882Z,98244.75
2022-09-06T01:30:20.598Z,98251.44
2022-09-06T01:35:27.402Z,98247.31
2022-09-06T01:40:28.936Z,98241.53
2022-09-06T01:45:42.371Z,98239.66
2022-09-06T01:50:47.294Z,98236.38
2022-09-06T01:55:56.912Z,98247.19
2022-09-06T02:01:04.940Z,98255.31
2022-09-06T02:06:09.519Z,98258.59
2022-09-06T02:11:13.045Z,98258.00
2022-09-06T02:16:18.631Z,98260.56
2022-09-06T02:21:23.294Z,98260.34
2022-09-06T02:26:27.073Z,98255.16
2022-09-06T02:31:33.314Z,98253.06
2022-09-06T02:36:36.310Z,98267.59
2022-09-06T02:41:38.487Z,98259.94
2022-09-06T02:46:39.856Z,98259.56
2022-09-06T02:51:41.318Z,98252.28
2022-09-06T02:56:43.181Z,98250.63
2022-09-06T03:01:44.856Z,98246.50
2022-09-06T03:06:46.325Z,98255.31
2022-09-06T03:11:47.686Z,98248.75
2022-09-06T03:16:49.146Z,98234.41
2022-09-06T03:21:50.548Z,98229.00
2022-09-06T03:26:51.984Z,98234.41
2022-09-06T03:31:53.536Z,98243.13
2022-09-06T03:36:54.980Z,98233.38
2022-09-06T03:41:56.496Z,98237.13
2022-09-06T03:46:58.655Z,98231.34
2022-09-06T03:52:00.007Z,98228.78
2022-09-06T03:57:01.456Z,98227.41
2022-09-06T04:02:02.960Z,98212.47
2022-09-06T04:07:04.407Z,98219.50
2022-09-06T04:12:05.834Z,98212.03
2022-09-06T04:17:07.177Z,98219.06
2022-09-06T04:22:10.298Z,98214.50
2022-09-06T04:27:11.668Z,98202.66
2022-09-06T04:32:13.173Z,98200.16
2022-09-06T04:37:19.949Z,98197.44
2022-09-06T04:42:22.113Z,98191.59
2022-09-06T04:47:23.868Z,98184.09
2022-09-06T04:52:29.988Z,98179.06
2022-09-06T04:57:31.676Z,98191.06
2022-09-06T05:02:33.065Z,98191.03
2022-09-06T05:07:34.555Z,98193.84
2022-09-06T05:12:37.379Z,98197.09
2022-09-06T05:17:40.183Z,98186.78
2022-09-06T05:22:41.669Z,98190.22
2022-09-06T05:27:43.163Z,98203.44
2022-09-06T05:32:44.642Z,98199.84
2022-09-06T05:37:45.993Z,98197.91
2022-09-06T05:42:47.363Z,98194.88
2022-09-06T05:47:48.803Z,98201.00
2022-09-06T05:52:50.165Z,98203.41
2022-09-06T05:57:51.524Z,98193.31
2022-09-06T06:02:52.868Z,98187.78
2022-09-06T06:07:55.578Z,98179.56
2022-09-06T06:12:57.480Z,98181.94
2022-09-06T06:17:58.882Z,98168.03
2022-09-06T06:23:00.257Z,98173.13
2022-09-06T06:28:01.713Z,98167.59
2022-09-06T06:33:03.338Z,98169.00
2022-09-06T06:38:04.952Z,98173.72
2022-09-06T06:43:06.333Z,98177.41
2022-09-06T06:48:07.670Z,98189.78
2022-09-06T06:53:09.108Z,98191.78
2022-09-06T06:58:10.437Z,98189.78
2022-09-06T07:03:12.365Z,98193.31
2022-09-06T07:08:13.776Z,98182.47
2022-09-06T07:13:15.153Z,98194.25
2022-09-06T07:18:16.963Z,98184.34
2022-09-06T07:28:39.694Z,98178.41
2022-09-06T07:33:41.083Z,98188.75
2022-09-06T07:38:42.484Z,98195.25
2022-09-06T07:43:44.075Z,98206.09
2022-09-06T07:48:46.678Z,98201.28
2022-09-06T07:53:57.856Z,98189.94
2022-09-06T07:59:09.353Z,98192.66
2022-09-06T08:04:13.053Z,98194.03
2022-09-06T08:09:14.528Z,98197.28
2022-09-06T08:14:15.885Z,98205.72
2022-09-06T08:19:18.272Z,98208.69
2022-09-06T08:24:19.776Z,98209.00
2022-09-06T08:29:21.142Z,98209.28
2022-09-06T08:34:22.586Z,98198.00
2022-09-06T08:39:24.010Z,98202.44
2022-09-06T08:50:00.682Z,98193.78
2022-09-06T08:55:02.083Z,98196.75
2022-09-06T09:00:10.477Z,98189.66
2022-09-06T09:05:20.843Z,98180.06
2022-09-06T09:10:25.246Z,98173.44
2022-09-06T09:15:27.679Z,98178.97
2022-09-06T09:20:29.269Z,98177.72
2022-09-06T09:25:32.708Z,98169.09
2022-09-06T09:30:54.882Z,98167.03
2022-09-06T09:35:58.126Z,98160.56
2022-09-06T09:41:04.116Z,98147.66
2022-09-06T09:46:16.824Z,98135.22
2022-09-06T09:51:26.338Z,98128.81
2022-09-06T09:56:39.302Z,98129.25
2022-09-06T10:01:40.708Z,98123.97
2022-09-06T10:12:03.993Z,98116.13
2022-09-06T10:17:05.815Z,98107.47
2022-09-06T10:22:14.544Z,98105.97
2022-09-06T10:27:19.916Z,98104.38
2022-09-06T10:32:34.548Z,98098.16
2022-09-06T10:37:42.193Z,98097.44
2022-09-06T10:42:46.717Z,98095.03
2022-09-06T10:47:57.368Z,98095.88
2022-09-06T10:53:05.368Z,98084.44
2022-09-06T11:09:10.692Z,98076.53
2022-09-06T11:14:13.491Z,98083.91
2022-09-06T11:19:22.551Z,98084.97
2022-09-06T11:24:32.018Z,98086.03
2022-09-06T11:29:34.273Z,98080.84
2022-09-06T11:34:36.249Z,98076.53
2022-09-06T11:45:06.630Z,98067.00
2022-09-06T11:50:20.218Z,98067.00
2022-09-06T11:55:34.230Z,98065.06
2022-09-06T12:00:35.794Z,98055.47
2022-09-06T12:05:55.878Z,98052.75
2022-09-06T12:10:57.257Z,98039.91
2022-09-06T12:15:59.798Z,98038.00
2022-09-06T12:21:01.645Z,98042.34
2022-09-06T12:26:10.261Z,98039.06
2022-09-06T12:31:26.033Z,98033.59
2022-09-06T12:36:30.235Z,98030.06
2022-09-06T12:41:38.404Z,98022.97
2022-09-06T12:46:46.336Z,98035.28
2022-09-06T12:51:47.946Z,98040.47
2022-09-06T12:56:49.912Z,98029.56
2022-09-06T13:01:56.319Z,98033.94
2022-09-06T13:06:58.786Z,98040.78
2022-09-06T13:12:26.129Z,98038.03
2022-09-06T13:17:28.419Z,98091.53
2022-09-06T13:22:39.051Z,98122.63
2022-09-06T13:27:45.791Z,98116.78
2022-09-06T13:32:48.292Z,98114.72
2022-09-06T13:37:49.670Z,98122.81
2022-09-06T13:42:59.625Z,98114.06
2022-09-06T13:48:19.407Z,98123.22
2022-09-06T13:53:22.342Z,98133.13
2022-09-06T13:58:24.483Z,98141.63
2022-09-06T14:03:28.415Z,98146.78
2022-09-06T14:08:43.850Z,98136.56
2022-09-06T14:13:51.593Z,98135.25
2022-09-06T14:18:53.001Z,98120.97
2022-09-06T14:23:54.411Z,98108.59
2022-09-06T14:28:56.050Z,98098.94
2022-09-06T14:33:57.594Z,98095.88
2022-09-06T14:39:00.612Z,98086.94
2022-09-06T14:44:02.157Z,98077.72
2022-09-06T14:49:06.004Z,98071.75
2022-09-06T14:54:08.790Z,98058.09
2022-09-06T14:59:10.655Z,98052.53
2022-09-06T15:04:12.091Z,98053.00
2022-09-06T15:09:14.537Z,98046.56
2022-09-06T15:14:17.458Z,98039.25
2022-09-06T15:19:19.438Z,98020.66
2022-09-06T15:24:20.978Z,98013.22
2022-09-06T15:29:22.496Z,98021.47
2022-09-06T15:34:24.937Z,97993.91
2022-09-06T15:39:26.382Z,97988.00
2022-09-06T15:44:27.931Z,97987.28
2022-09-06T15:49:33.565Z,97987.19
2022-09-06T15:54:53.382Z,97994.94
2022-09-06T15:59:55.448Z,98002.09
2022-09-06T16:04:56.985Z,98011.31
2022-09-06T16:10:00.909Z,98007.53
2022-09-06T16:15:03.432Z,98014.56
2022-09-06T16:20:05.127Z,98007.31
2022-09-06T16:25:06.659Z,98009.16
2022-09-06T16:30:08.306Z,98012.94
2022-09-06T16:35:09.633Z,98005.88
2022-09-06T16:40:11.197Z,98006.22
2022-09-06T16:45:12.617Z,98005.75
2022-09-06T16:50:14.191Z,97993.13
2022-09-06T16:55:15.570Z,97991.56
2022-09-06T17:00:17.106Z,98001.69
2022-09-06T17:05:18.498Z,98000.38
2022-09-06T17:10:19.831Z,97991.53
2022-09-06T17:15:21.157Z,97973.97
2022-09-06T17:20:22.477Z,97983.13
2022-09-06T17:25:23.874Z,97976.34
2022-09-06T17:30:26.633Z,97985.28
2022-09-06T17:35:28.065Z,97981.16
2022-09-06T17:40:29.457Z,97994.13
2022-09-06T17:45:35.862Z,97979.75
2022-09-06T17:50:37.545Z,97994.63
2022-09-06T17:55:42.196Z,98002.41
2022-09-06T18:00:43.532Z,98002.91
2022-09-06T18:05:45.185Z,98010.69
2022-09-06T18:10:46.839Z,98008.47
2022-09-06T18:15:48.336Z,98001.63
2022-09-06T18:20:51.212Z,98009.41
2022-09-06T18:25:59.745Z,98012.25
2022-09-06T18:31:04.333Z,98004.50
2022-09-06T18:36:06.681Z,97990.84
2022-09-06T18:41:09.322Z,97990.94
2022-09-06T18:46:14.733Z,97986.00
2022-09-06T18:51:16.301Z,97983.75
2022-09-06T18:56:17.700Z,97985.09
2022-09-06T19:01:20.672Z,97994.25
2022-09-06T19:06:22.277Z,98002.38
2022-09-06T19:11:23.698Z,97989.91
2022-09-06T19:16:26.128Z,97990.38
2022-09-06T19:21:27.687Z,98000.06
2022-09-06T19:26:31.213Z,98006.75
2022-09-06T19:31:34.420Z,98008.06
2022-09-06T19:36:36.171Z,98002.03
2022-09-06T19:41:38.188Z,97997.34
2022-09-06T19:46:45.450Z,97993.81
2022-09-06T19:51:48.723Z,97980.75
2022-09-06T19:56:50.619Z,97964.50
2022-09-06T20:01:52.054Z,97964.50
2022-09-06T20:06:53.462Z,97970.41
2022-09-06T20:11:54.808Z,97968.72
2022-09-06T20:17:06.536Z,97969.22
2022-09-06T20:22:17.529Z,97966.75
2022-09-06T20:27:18.875Z,97958.84
2022-09-06T20:32:20.234Z,97956.41
2022-09-06T20:37:21.661Z,97947.94
2022-09-06T20:42:22.988Z,97938.19
2022-09-06T20:47:24.333Z,97939.22
2022-09-06T20:52:25.825Z,97929.47
2022-09-06T20:57:27.157Z,97912.06
2022-09-06T21:02:28.564Z,97912.06
2022-09-06T21:07:29.949Z,97903.34
2022-09-06T21:12:31.469Z,97911.47
2022-09-06T21:17:32.788Z,97905.44
2022-09-06T21:22:34.138Z,97889.69
2022-09-06T21:27:35.549Z,97894.53
2022-09-06T21:32:36.979Z,97888.53
